sensor_id;sensor_type;location;lat;lon;timestamp;P1;durP1;ratioP1;P2;durP2;ratioP2
20623;SDS011;10471;42.736;23.346;2023-05-13T00:00:35;5.13;;;3.80;;
20623;SDS011;10471;42.736;23.346;2023-05-13T00:03:01;4.80;;;3.80;;
20623;SDS011;10471;42.736;23.346;2023-05-13T00:05:27;5.53;;;3.90;;
20623;SDS011;10471;42.736;23.346;2023-05-13T00:07:52;5.40;;;3.37;;
20623;SDS011;10471;42.736;23.346;2023-05-13T00:10:18;5.50;;;4.10;;
20623;SDS011;10471;42.736;23.346;2023-05-13T00:12:44;4.70;;;3.77;;
20623;SDS011;10471;42.736;23.346;2023-05-13T00:15:10;4.83;;;3.60;;
20623;SDS011;10471;42.736;23.346;2023-05-13T00:17:35;5.00;;;3.43;;
20623;SDS011;10471;42.736;23.346;2023-05-13T00:20:01;4.40;;;3.30;;
20623;SDS011;10471;42.736;23.346;2023-05-13T00:22:26;8.90;;;3.90;;
20623;SDS011;10471;42.736;23.346;2023-05-13T00:24:51;5.87;;;3.87;;
20623;SDS011;10471;42.736;23.346;2023-05-13T00:27:17;5.23;;;3.67;;
20623;SDS011;10471;42.736;23.346;2023-05-13T00:29:42;3.67;;;3.17;;
20623;SDS011;10471;42.736;23.346;2023-05-13T00:32:07;9.07;;;3.80;;
20623;SDS011;10471;42.736;23.346;2023-05-13T00:34:33;7.13;;;4.07;;
20623;SDS011;10471;42.736;23.346;2023-05-13T00:36:58;5.27;;;3.87;;
20623;SDS011;10471;42.736;23.346;2023-05-13T00:39:25;4.60;;;3.70;;
20623;SDS011;10471;42.736;23.346;2023-05-13T00:41:51;9.37;;;4.00;;
20623;SDS011;10471;42.736;23.346;2023-05-13T00:44:16;4.20;;;3.80;;
20623;SDS011;10471;42.736;23.346;2023-05-13T00:46:42;6.73;;;3.57;;
20623;SDS011;10471;42.736;23.346;2023-05-13T00:49:07;4.53;;;3.20;;
20623;SDS011;10471;42.736;23.346;2023-05-13T00:51:33;4.60;;;3.53;;
20623;SDS011;10471;42.736;23.346;2023-05-13T00:53:58;5.80;;;3.47;;
20623;SDS011;10471;42.736;23.346;2023-05-13T00:56:24;5.03;;;3.47;;
20623;SDS011;10471;42.736;23.346;2023-05-13T00:58:50;4.87;;;3.57;;
20623;SDS011;10471;42.736;23.346;2023-05-13T01:12:11;6.77;;;4.10;;
20623;SDS011;10471;42.736;23.346;2023-05-13T01:14:48;4.87;;;3.80;;
20623;SDS011;10471;42.736;23.346;2023-05-13T01:20:30;5.33;;;3.63;;
20623;SDS011;10471;42.736;23.346;2023-05-13T01:22:56;5.97;;;4.10;;
20623;SDS011;10471;42.736;23.346;2023-05-13T01:25:22;6.83;;;4.00;;
20623;SDS011;10471;42.736;23.346;2023-05-13T01:27:48;4.50;;;3.60;;
20623;SDS011;10471;42.736;23.346;2023-05-13T01:30:14;7.53;;;4.00;;
20623;SDS011;10471;42.736;23.346;2023-05-13T01:32:40;5.30;;;3.90;;
20623;SDS011;10471;42.736;23.346;2023-05-13T01:35:06;7.90;;;3.70;;
20623;SDS011;10471;42.736;23.346;2023-05-13T01:37:33;5.47;;;3.90;;
20623;SDS011;10471;42.736;23.346;2023-05-13T01:40:00;5.43;;;4.10;;
20623;SDS011;10471;42.736;23.346;2023-05-13T01:42:28;7.20;;;3.63;;
20623;SDS011;10471;42.736;23.346;2023-05-13T01:44:54;4.73;;;3.33;;
20623;SDS011;10471;42.736;23.346;2023-05-13T01:47:19;5.20;;;3.67;;
20623;SDS011;10471;42.736;23.346;2023-05-13T01:49:45;5.83;;;3.73;;
20623;SDS011;10471;42.736;23.346;2023-05-13T01:52:10;5.23;;;3.17;;
20623;SDS011;10471;42.736;23.346;2023-05-13T01:54:35;5.90;;;3.67;;
20623;SDS011;10471;42.736;23.346;2023-05-13T01:57:01;6.63;;;3.60;;
20623;SDS011;10471;42.736;23.346;2023-05-13T01:59:27;5.73;;;3.77;;
20623;SDS011;10471;42.736;23.346;2023-05-13T02:01:52;6.70;;;3.80;;
20623;SDS011;10471;42.736;23.346;2023-05-13T02:04:18;6.67;;;3.83;;
20623;SDS011;10471;42.736;23.346;2023-05-13T02:06:43;4.47;;;3.97;;
20623;SDS011;10471;42.736;23.346;2023-05-13T02:09:08;4.00;;;3.40;;
20623;SDS011;10471;42.736;23.346;2023-05-13T02:11:34;5.70;;;3.83;;
20623;SDS011;10471;42.736;23.346;2023-05-13T02:14:00;5.87;;;3.63;;
20623;SDS011;10471;42.736;23.346;2023-05-13T02:16:25;6.60;;;3.70;;
20623;SDS011;10471;42.736;23.346;2023-05-13T02:18:50;5.57;;;3.30;;
20623;SDS011;10471;42.736;23.346;2023-05-13T02:21:16;5.30;;;3.67;;
20623;SDS011;10471;42.736;23.346;2023-05-13T02:23:41;5.20;;;3.37;;
20623;SDS011;10471;42.736;23.346;2023-05-13T02:26:06;4.40;;;3.70;;
20623;SDS011;10471;42.736;23.346;2023-05-13T02:28:32;5.97;;;3.27;;
20623;SDS011;10471;42.736;23.346;2023-05-13T02:30:57;4.67;;;2.90;;
20623;SDS011;10471;42.736;23.346;2023-05-13T02:33:23;4.20;;;3.17;;
20623;SDS011;10471;42.736;23.346;2023-05-13T02:35:48;4.90;;;3.47;;
20623;SDS011;10471;42.736;23.346;2023-05-13T02:38:14;7.23;;;3.40;;
20623;SDS011;10471;42.736;23.346;2023-05-13T02:40:39;5.67;;;3.13;;
20623;SDS011;10471;42.736;23.346;2023-05-13T02:43:04;4.20;;;3.00;;
20623;SDS011;10471;42.736;23.346;2023-05-13T02:45:30;3.17;;;2.80;;
20623;SDS011;10471;42.736;23.346;2023-05-13T02:47:55;6.60;;;2.97;;
20623;SDS011;10471;42.736;23.346;2023-05-13T02:50:21;3.23;;;2.80;;
20623;SDS011;10471;42.736;23.346;2023-05-13T02:52:47;4.87;;;2.83;;
20623;SDS011;10471;42.736;23.346;2023-05-13T02:55:12;3.90;;;2.63;;
20623;SDS011;10471;42.736;23.346;2023-05-13T02:57:37;2.83;;;2.43;;
20623;SDS011;10471;42.736;23.346;2023-05-13T03:00:03;3.70;;;2.73;;
20623;SDS011;10471;42.736;23.346;2023-05-13T03:02:31;3.33;;;2.60;;
20623;SDS011;10471;42.736;23.346;2023-05-13T03:04:58;6.03;;;3.17;;
20623;SDS011;10471;42.736;23.346;2023-05-13T03:07:23;5.87;;;2.97;;
20623;SDS011;10471;42.736;23.346;2023-05-13T03:09:49;5.90;;;3.00;;
20623;SDS011;10471;42.736;23.346;2023-05-13T03:12:14;8.10;;;3.10;;
20623;SDS011;10471;42.736;23.346;2023-05-13T03:14:40;4.27;;;2.70;;
20623;SDS011;10471;42.736;23.346;2023-05-13T03:17:07;5.77;;;3.00;;
20623;SDS011;10471;42.736;23.346;2023-05-13T03:19:32;3.73;;;3.17;;
20623;SDS011;10471;42.736;23.346;2023-05-13T03:22:00;4.60;;;3.03;;
20623;SDS011;10471;42.736;23.346;2023-05-13T03:24:25;3.70;;;3.30;;
20623;SDS011;10471;42.736;23.346;2023-05-13T03:26:51;4.17;;;3.00;;
20623;SDS011;10471;42.736;23.346;2023-05-13T03:29:16;4.30;;;3.17;;
20623;SDS011;10471;42.736;23.346;2023-05-13T03:31:42;4.77;;;3.00;;
20623;SDS011;10471;42.736;23.346;2023-05-13T03:34:07;5.33;;;3.10;;
20623;SDS011;10471;42.736;23.346;2023-05-13T03:36:33;4.13;;;3.10;;
20623;SDS011;10471;42.736;23.346;2023-05-13T03:38:58;6.53;;;3.40;;
20623;SDS011;10471;42.736;23.346;2023-05-13T03:41:23;3.87;;;3.07;;
20623;SDS011;10471;42.736;23.346;2023-05-13T03:43:49;4.27;;;3.10;;
20623;SDS011;10471;42.736;23.346;2023-05-13T03:46:15;4.43;;;3.37;;
20623;SDS011;10471;42.736;23.346;2023-05-13T03:48:40;4.60;;;3.10;;
20623;SDS011;10471;42.736;23.346;2023-05-13T03:51:06;5.03;;;2.77;;
20623;SDS011;10471;42.736;23.346;2023-05-13T03:53:31;4.07;;;3.30;;
20623;SDS011;10471;42.736;23.346;2023-05-13T03:55:57;7.70;;;3.13;;
20623;SDS011;10471;42.736;23.346;2023-05-13T03:58:22;5.57;;;3.20;;
20623;SDS011;10471;42.736;23.346;2023-05-13T04:00:47;3.37;;;3.07;;
20623;SDS011;10471;42.736;23.346;2023-05-13T04:03:13;4.97;;;3.50;;
20623;SDS011;10471;42.736;23.346;2023-05-13T04:05:45;5.77;;;3.50;;
20623;SDS011;10471;42.736;23.346;2023-05-13T04:08:11;6.93;;;3.10;;
20623;SDS011;10471;42.736;23.346;2023-05-13T04:10:36;5.57;;;3.50;;
20623;SDS011;10471;42.736;23.346;2023-05-13T04:13:02;5.33;;;3.47;;
20623;SDS011;10471;42.736;23.346;2023-05-13T04:15:27;6.27;;;3.37;;
20623;SDS011;10471;42.736;23.346;2023-05-13T04:17:52;5.83;;;3.40;;
20623;SDS011;10471;42.736;23.346;2023-05-13T04:20:18;6.23;;;3.40;;
20623;SDS011;10471;42.736;23.346;2023-05-13T04:22:44;4.23;;;3.10;;
20623;SDS011;10471;42.736;23.346;2023-05-13T04:25:09;5.80;;;3.33;;
20623;SDS011;10471;42.736;23.346;2023-05-13T04:27:35;4.33;;;3.40;;
20623;SDS011;10471;42.736;23.346;2023-05-13T04:30:00;5.77;;;3.17;;
20623;SDS011;10471;42.736;23.346;2023-05-13T04:32:25;5.17;;;3.57;;
20623;SDS011;10471;42.736;23.346;2023-05-13T04:34:51;5.97;;;3.67;;
20623;SDS011;10471;42.736;23.346;2023-05-13T04:37:17;7.27;;;3.90;;
20623;SDS011;10471;42.736;23.346;2023-05-13T04:39:46;6.47;;;4.23;;
20623;SDS011;10471;42.736;23.346;2023-05-13T04:42:12;5.53;;;3.53;;
20623;SDS011;10471;42.736;23.346;2023-05-13T04:44:38;6.27;;;4.10;;
20623;SDS011;10471;42.736;23.346;2023-05-13T04:47:04;5.43;;;3.80;;
20623;SDS011;10471;42.736;23.346;2023-05-13T04:49:30;6.03;;;3.97;;
20623;SDS011;10471;42.736;23.346;2023-05-13T04:51:55;5.17;;;3.50;;
20623;SDS011;10471;42.736;23.346;2023-05-13T04:54:21;8.30;;;4.43;;
20623;SDS011;10471;42.736;23.346;2023-05-13T04:56:47;7.00;;;3.93;;
20623;SDS011;10471;42.736;23.346;2023-05-13T04:59:12;6.97;;;3.90;;
20623;SDS011;10471;42.736;23.346;2023-05-13T05:01:37;8.90;;;4.13;;
20623;SDS011;10471;42.736;23.346;2023-05-13T05:04:04;9.83;;;4.63;;
20623;SDS011;10471;42.736;23.346;2023-05-13T05:06:29;5.80;;;4.80;;
20623;SDS011;10471;42.736;23.346;2023-05-13T05:08:56;5.33;;;4.13;;
20623;SDS011;10471;42.736;23.346;2023-05-13T05:11:22;7.17;;;3.53;;
20623;SDS011;10471;42.736;23.346;2023-05-13T05:13:47;5.73;;;3.07;;
20623;SDS011;10471;42.736;23.346;2023-05-13T05:16:13;6.50;;;3.40;;
20623;SDS011;10471;42.736;23.346;2023-05-13T05:18:38;5.87;;;3.17;;
20623;SDS011;10471;42.736;23.346;2023-05-13T05:21:05;4.10;;;3.00;;
20623;SDS011;10471;42.736;23.346;2023-05-13T05:23:31;6.57;;;3.50;;
20623;SDS011;10471;42.736;23.346;2023-05-13T05:25:56;5.40;;;2.93;;
20623;SDS011;10471;42.736;23.346;2023-05-13T05:28:24;3.33;;;2.70;;
20623;SDS011;10471;42.736;23.346;2023-05-13T05:30:49;6.27;;;3.00;;
20623;SDS011;10471;42.736;23.346;2023-05-13T05:33:15;3.93;;;2.77;;
20623;SDS011;10471;42.736;23.346;2023-05-13T05:35:42;6.23;;;2.80;;
20623;SDS011;10471;42.736;23.346;2023-05-13T05:38:07;3.40;;;2.63;;
20623;SDS011;10471;42.736;23.346;2023-05-13T05:40:40;3.70;;;2.60;;
20623;SDS011;10471;42.736;23.346;2023-05-13T05:43:06;5.43;;;2.60;;
20623;SDS011;10471;42.736;23.346;2023-05-13T05:45:33;3.20;;;2.30;;
20623;SDS011;10471;42.736;23.346;2023-05-13T05:47:59;4.77;;;2.50;;
20623;SDS011;10471;42.736;23.346;2023-05-13T05:50:26;4.60;;;2.57;;
20623;SDS011;10471;42.736;23.346;2023-05-13T05:52:52;3.00;;;2.70;;
20623;SDS011;10471;42.736;23.346;2023-05-13T05:55:18;6.03;;;2.90;;
20623;SDS011;10471;42.736;23.346;2023-05-13T05:57:43;4.13;;;2.50;;
20623;SDS011;10471;42.736;23.346;2023-05-13T06:00:09;5.73;;;2.80;;
20623;SDS011;10471;42.736;23.346;2023-05-13T06:02:34;5.63;;;3.07;;
20623;SDS011;10471;42.736;23.346;2023-05-13T06:05:00;4.77;;;2.70;;
20623;SDS011;10471;42.736;23.346;2023-05-13T06:07:25;9.03;;;3.00;;
20623;SDS011;10471;42.736;23.346;2023-05-13T06:09:51;5.37;;;2.77;;
20623;SDS011;10471;42.736;23.346;2023-05-13T06:12:16;4.50;;;3.03;;
20623;SDS011;10471;42.736;23.346;2023-05-13T06:14:41;3.80;;;2.77;;
20623;SDS011;10471;42.736;23.346;2023-05-13T06:17:07;3.87;;;2.60;;
20623;SDS011;10471;42.736;23.346;2023-05-13T06:19:32;3.43;;;2.73;;
20623;SDS011;10471;42.736;23.346;2023-05-13T06:21:57;3.87;;;2.60;;
20623;SDS011;10471;42.736;23.346;2023-05-13T06:24:23;6.57;;;2.70;;
20623;SDS011;10471;42.736;23.346;2023-05-13T06:26:48;5.57;;;2.40;;
20623;SDS011;10471;42.736;23.346;2023-05-13T06:29:13;7.90;;;2.40;;
20623;SDS011;10471;42.736;23.346;2023-05-13T06:31:39;6.00;;;1.80;;
20623;SDS011;10471;42.736;23.346;2023-05-13T06:34:04;3.33;;;1.90;;
20623;SDS011;10471;42.736;23.346;2023-05-13T06:36:30;3.63;;;2.20;;
20623;SDS011;10471;42.736;23.346;2023-05-13T06:38:55;3.80;;;2.13;;
20623;SDS011;10471;42.736;23.346;2023-05-13T06:41:21;3.87;;;2.30;;
20623;SDS011;10471;42.736;23.346;2023-05-13T06:43:46;3.00;;;2.20;;
20623;SDS011;10471;42.736;23.346;2023-05-13T06:46:12;2.67;;;2.03;;
20623;SDS011;10471;42.736;23.346;2023-05-13T06:48:38;4.27;;;2.03;;
20623;SDS011;10471;42.736;23.346;2023-05-13T06:51:03;2.20;;;1.87;;
20623;SDS011;10471;42.736;23.346;2023-05-13T06:53:29;2.00;;;1.60;;
20623;SDS011;10471;42.736;23.346;2023-05-13T06:55:55;5.37;;;1.80;;
20623;SDS011;10471;42.736;23.346;2023-05-13T06:58:21;2.70;;;1.90;;
20623;SDS011;10471;42.736;23.346;2023-05-13T07:00:47;5.43;;;2.23;;
20623;SDS011;10471;42.736;23.346;2023-05-13T07:03:12;3.83;;;2.27;;
20623;SDS011;10471;42.736;23.346;2023-05-13T07:05:37;2.93;;;2.10;;
20623;SDS011;10471;42.736;23.346;2023-05-13T07:08:04;5.33;;;1.90;;
20623;SDS011;10471;42.736;23.346;2023-05-13T07:10:31;2.00;;;1.73;;
20623;SDS011;10471;42.736;23.346;2023-05-13T07:12:58;4.30;;;2.20;;
20623;SDS011;10471;42.736;23.346;2023-05-13T07:15:24;2.73;;;1.60;;
20623;SDS011;10471;42.736;23.346;2023-05-13T07:17:49;2.60;;;1.80;;
20623;SDS011;10471;42.736;23.346;2023-05-13T07:20:15;2.87;;;2.20;;
20623;SDS011;10471;42.736;23.346;2023-05-13T07:22:40;4.50;;;2.20;;
20623;SDS011;10471;42.736;23.346;2023-05-13T07:25:05;3.17;;;2.13;;
20623;SDS011;10471;42.736;23.346;2023-05-13T07:27:31;3.37;;;2.30;;
20623;SDS011;10471;42.736;23.346;2023-05-13T07:29:56;3.07;;;2.37;;
20623;SDS011;10471;42.736;23.346;2023-05-13T07:32:22;5.33;;;2.43;;
20623;SDS011;10471;42.736;23.346;2023-05-13T07:34:47;4.30;;;2.70;;
20623;SDS011;10471;42.736;23.346;2023-05-13T07:37:12;3.47;;;2.27;;
20623;SDS011;10471;42.736;23.346;2023-05-13T07:39:38;3.93;;;3.03;;
20623;SDS011;10471;42.736;23.346;2023-05-13T07:42:03;5.47;;;2.87;;
20623;SDS011;10471;42.736;23.346;2023-05-13T07:44:29;3.67;;;2.70;;
20623;SDS011;10471;42.736;23.346;2023-05-13T07:46:54;5.47;;;3.33;;
20623;SDS011;10471;42.736;23.346;2023-05-13T07:49:20;4.47;;;2.90;;
20623;SDS011;10471;42.736;23.346;2023-05-13T07:51:45;5.57;;;3.00;;
20623;SDS011;10471;42.736;23.346;2023-05-13T07:54:11;4.23;;;2.97;;
20623;SDS011;10471;42.736;23.346;2023-05-13T07:56:37;6.67;;;3.20;;
20623;SDS011;10471;42.736;23.346;2023-05-13T07:59:02;5.70;;;3.87;;
20623;SDS011;10471;42.736;23.346;2023-05-13T08:01:28;5.90;;;3.80;;
20623;SDS011;10471;42.736;23.346;2023-05-13T08:03:54;5.37;;;3.73;;
20623;SDS011;10471;42.736;23.346;2023-05-13T08:06:19;6.53;;;4.87;;
20623;SDS011;10471;42.736;23.346;2023-05-13T08:08:45;6.67;;;4.63;;
20623;SDS011;10471;42.736;23.346;2023-05-13T08:11:10;8.57;;;4.67;;
20623;SDS011;10471;42.736;23.346;2023-05-13T08:13:36;6.67;;;4.97;;
20623;SDS011;10471;42.736;23.346;2023-05-13T08:16:02;7.47;;;5.37;;
20623;SDS011;10471;42.736;23.346;2023-05-13T08:18:28;5.83;;;4.90;;
20623;SDS011;10471;42.736;23.346;2023-05-13T08:20:53;7.23;;;5.40;;
20623;SDS011;10471;42.736;23.346;2023-05-13T08:23:19;8.20;;;5.33;;
20623;SDS011;10471;42.736;23.346;2023-05-13T08:25:44;6.97;;;5.70;;
20623;SDS011;10471;42.736;23.346;2023-05-13T08:28:10;7.57;;;5.13;;
20623;SDS011;10471;42.736;23.346;2023-05-13T08:30:35;7.87;;;5.57;;
20623;SDS011;10471;42.736;23.346;2023-05-13T08:33:01;10.13;;;5.93;;
20623;SDS011;10471;42.736;23.346;2023-05-13T08:35:26;7.10;;;5.67;;
20623;SDS011;10471;42.736;23.346;2023-05-13T08:37:51;8.63;;;5.50;;
20623;SDS011;10471;42.736;23.346;2023-05-13T08:40:17;8.33;;;5.60;;
20623;SDS011;10471;42.736;23.346;2023-05-13T08:42:42;9.40;;;5.50;;
20623;SDS011;10471;42.736;23.346;2023-05-13T08:45:11;7.30;;;5.83;;
20623;SDS011;10471;42.736;23.346;2023-05-13T08:47:50;6.90;;;5.40;;
20623;SDS011;10471;42.736;23.346;2023-05-13T08:50:19;8.07;;;5.43;;
20623;SDS011;10471;42.736;23.346;2023-05-13T08:52:46;10.43;;;5.53;;
20623;SDS011;10471;42.736;23.346;2023-05-13T08:55:13;7.83;;;5.80;;
20623;SDS011;10471;42.736;23.346;2023-05-13T08:57:40;7.97;;;6.00;;
20623;SDS011;10471;42.736;23.346;2023-05-13T09:00:05;11.13;;;6.07;;
20623;SDS011;10471;42.736;23.346;2023-05-13T09:02:31;11.67;;;5.77;;
20623;SDS011;10471;42.736;23.346;2023-05-13T09:04:58;9.13;;;6.00;;
20623;SDS011;10471;42.736;23.346;2023-05-13T09:07:29;11.23;;;6.00;;
20623;SDS011;10471;42.736;23.346;2023-05-13T09:09:54;7.33;;;5.80;;
20623;SDS011;10471;42.736;23.346;2023-05-13T09:15:13;8.80;;;6.17;;
20623;SDS011;10471;42.736;23.346;2023-05-13T09:17:42;8.27;;;5.90;;
20623;SDS011;10471;42.736;23.346;2023-05-13T09:20:12;10.37;;;6.30;;
20623;SDS011;10471;42.736;23.346;2023-05-13T09:22:51;9.47;;;6.07;;
20623;SDS011;10471;42.736;23.346;2023-05-13T09:25:19;8.77;;;6.23;;
20623;SDS011;10471;42.736;23.346;2023-05-13T09:27:54;11.53;;;6.97;;
20623;SDS011;10471;42.736;23.346;2023-05-13T09:30:27;9.00;;;6.47;;
20623;SDS011;10471;42.736;23.346;2023-05-13T09:35:33;8.17;;;6.80;;
20623;SDS011;10471;42.736;23.346;2023-05-13T09:38:00;8.60;;;6.70;;
20623;SDS011;10471;42.736;23.346;2023-05-13T09:40:35;11.33;;;6.87;;
20623;SDS011;10471;42.736;23.346;2023-05-13T09:43:02;11.23;;;6.80;;
20623;SDS011;10471;42.736;23.346;2023-05-13T09:45:29;9.13;;;7.30;;
20623;SDS011;10471;42.736;23.346;2023-05-13T09:47:54;11.73;;;7.33;;
20623;SDS011;10471;42.736;23.346;2023-05-13T09:50:21;8.20;;;6.97;;
20623;SDS011;10471;42.736;23.346;2023-05-13T09:52:46;9.70;;;6.77;;
20623;SDS011;10471;42.736;23.346;2023-05-13T09:55:12;9.17;;;6.80;;
20623;SDS011;10471;42.736;23.346;2023-05-13T09:57:38;10.57;;;6.50;;
20623;SDS011;10471;42.736;23.346;2023-05-13T10:00:04;9.43;;;6.87;;
20623;SDS011;10471;42.736;23.346;2023-05-13T10:02:31;11.17;;;7.00;;
20623;SDS011;10471;42.736;23.346;2023-05-13T10:04:56;10.93;;;7.10;;
20623;SDS011;10471;42.736;23.346;2023-05-13T10:07:23;8.50;;;6.83;;
20623;SDS011;10471;42.736;23.346;2023-05-13T10:09:53;10.00;;;6.57;;
20623;SDS011;10471;42.736;23.346;2023-05-13T10:12:23;9.93;;;6.87;;
20623;SDS011;10471;42.736;23.346;2023-05-13T10:14:50;8.37;;;7.10;;
20623;SDS011;10471;42.736;23.346;2023-05-13T10:17:20;7.70;;;6.37;;
20623;SDS011;10471;42.736;23.346;2023-05-13T10:19:48;8.37;;;6.00;;
20623;SDS011;10471;42.736;23.346;2023-05-13T10:22:16;10.83;;;6.97;;
20623;SDS011;10471;42.736;23.346;2023-05-13T10:24:52;8.27;;;5.43;;
20623;SDS011;10471;42.736;23.346;2023-05-13T10:27:19;7.27;;;6.23;;
20623;SDS011;10471;42.736;23.346;2023-05-13T10:29:46;9.57;;;6.20;;
20623;SDS011;10471;42.736;23.346;2023-05-13T10:32:12;8.87;;;5.77;;
20623;SDS011;10471;42.736;23.346;2023-05-13T10:34:38;8.50;;;6.63;;
20623;SDS011;10471;42.736;23.346;2023-05-13T10:37:41;10.80;;;6.20;;
20623;SDS011;10471;42.736;23.346;2023-05-13T10:40:24;9.50;;;6.03;;
20623;SDS011;10471;42.736;23.346;2023-05-13T10:45:57;7.07;;;6.03;;
20623;SDS011;10471;42.736;23.346;2023-05-13T10:48:25;7.10;;;5.40;;
20623;SDS011;10471;42.736;23.346;2023-05-13T10:53:24;6.93;;;5.20;;
20623;SDS011;10471;42.736;23.346;2023-05-13T10:55:53;8.00;;;5.30;;
20623;SDS011;10471;42.736;23.346;2023-05-13T10:58:20;7.30;;;5.00;;
20623;SDS011;10471;42.736;23.346;2023-05-13T11:00:48;9.83;;;6.13;;
20623;SDS011;10471;42.736;23.346;2023-05-13T11:05:44;8.40;;;6.03;;
20623;SDS011;10471;42.736;23.346;2023-05-13T11:08:11;14.13;;;7.90;;
20623;SDS011;10471;42.736;23.346;2023-05-13T11:10:56;6.67;;;5.43;;
20623;SDS011;10471;42.736;23.346;2023-05-13T11:13:22;9.23;;;5.53;;
20623;SDS011;10471;42.736;23.346;2023-05-13T11:15:49;6.60;;;5.30;;
20623;SDS011;10471;42.736;23.346;2023-05-13T11:18:16;12.37;;;5.53;;
20623;SDS011;10471;42.736;23.346;2023-05-13T11:20:51;9.07;;;6.50;;
20623;SDS011;10471;42.736;23.346;2023-05-13T11:23:20;7.80;;;5.80;;
20623;SDS011;10471;42.736;23.346;2023-05-13T11:25:46;8.33;;;5.80;;
20623;SDS011;10471;42.736;23.346;2023-05-13T11:31:21;8.33;;;5.13;;
20623;SDS011;10471;42.736;23.346;2023-05-13T11:34:04;6.73;;;5.50;;
20623;SDS011;10471;42.736;23.346;2023-05-13T11:36:39;6.70;;;5.20;;
20623;SDS011;10471;42.736;23.346;2023-05-13T11:39:16;6.70;;;5.70;;
20623;SDS011;10471;42.736;23.346;2023-05-13T11:41:47;6.83;;;5.83;;
20623;SDS011;10471;42.736;23.346;2023-05-13T11:44:17;7.47;;;6.10;;
20623;SDS011;10471;42.736;23.346;2023-05-13T11:46:57;9.20;;;5.97;;
20623;SDS011;10471;42.736;23.346;2023-05-13T11:52:09;6.57;;;5.00;;
20623;SDS011;10471;42.736;23.346;2023-05-13T11:54:49;7.23;;;5.30;;
20623;SDS011;10471;42.736;23.346;2023-05-13T11:57:18;7.37;;;5.80;;
20623;SDS011;10471;42.736;23.346;2023-05-13T12:00:03;7.70;;;5.23;;
20623;SDS011;10471;42.736;23.346;2023-05-13T12:02:37;7.67;;;6.40;;
20623;SDS011;10471;42.736;23.346;2023-05-13T12:05:08;6.93;;;5.27;;
20623;SDS011;10471;42.736;23.346;2023-05-13T12:07:36;8.30;;;5.63;;
20623;SDS011;10471;42.736;23.346;2023-05-13T12:10:02;9.33;;;5.60;;
20623;SDS011;10471;42.736;23.346;2023-05-13T12:12:29;6.30;;;5.70;;
20623;SDS011;10471;42.736;23.346;2023-05-13T12:14:58;8.90;;;5.20;;
20623;SDS011;10471;42.736;23.346;2023-05-13T12:17:25;6.67;;;5.47;;
20623;SDS011;10471;42.736;23.346;2023-05-13T12:30:38;6.03;;;4.97;;
20623;SDS011;10471;42.736;23.346;2023-05-13T12:33:05;7.00;;;5.00;;
20623;SDS011;10471;42.736;23.346;2023-05-13T12:35:37;6.63;;;4.87;;
20623;SDS011;10471;42.736;23.346;2023-05-13T12:38:03;6.53;;;5.27;;
20623;SDS011;10471;42.736;23.346;2023-05-13T12:40:29;6.90;;;4.87;;
20623;SDS011;10471;42.736;23.346;2023-05-13T12:42:56;5.10;;;4.60;;
20623;SDS011;10471;42.736;23.346;2023-05-13T12:45:24;6.50;;;4.47;;
20623;SDS011;10471;42.736;23.346;2023-05-13T12:47:51;8.83;;;5.10;;
20623;SDS011;10471;42.736;23.346;2023-05-13T12:50:17;8.33;;;5.13;;
20623;SDS011;10471;42.736;23.346;2023-05-13T12:52:43;6.17;;;4.70;;
20623;SDS011;10471;42.736;23.346;2023-05-13T12:55:08;5.80;;;4.83;;
20623;SDS011;10471;42.736;23.346;2023-05-13T12:57:34;5.67;;;5.10;;
20623;SDS011;10471;42.736;23.346;2023-05-13T12:59:59;5.30;;;4.80;;
20623;SDS011;10471;42.736;23.346;2023-05-13T13:02:24;6.77;;;4.90;;
20623;SDS011;10471;42.736;23.346;2023-05-13T13:04:50;6.27;;;5.00;;
20623;SDS011;10471;42.736;23.346;2023-05-13T13:07:15;6.67;;;5.60;;
20623;SDS011;10471;42.736;23.346;2023-05-13T13:09:41;7.40;;;5.13;;
20623;SDS011;10471;42.736;23.346;2023-05-13T13:12:06;7.40;;;5.30;;
20623;SDS011;10471;42.736;23.346;2023-05-13T13:14:32;9.07;;;5.13;;
20623;SDS011;10471;42.736;23.346;2023-05-13T13:16:57;6.47;;;5.20;;
20623;SDS011;10471;42.736;23.346;2023-05-13T13:19:22;8.40;;;5.53;;
20623;SDS011;10471;42.736;23.346;2023-05-13T13:21:48;7.07;;;5.00;;
20623;SDS011;10471;42.736;23.346;2023-05-13T13:24:13;9.93;;;5.30;;
20623;SDS011;10471;42.736;23.346;2023-05-13T13:26:39;6.60;;;5.60;;
20623;SDS011;10471;42.736;23.346;2023-05-13T13:29:04;6.47;;;5.40;;
20623;SDS011;10471;42.736;23.346;2023-05-13T13:31:30;7.20;;;5.03;;
20623;SDS011;10471;42.736;23.346;2023-05-13T13:33:55;7.47;;;5.50;;
20623;SDS011;10471;42.736;23.346;2023-05-13T13:36:23;6.30;;;5.00;;
20623;SDS011;10471;42.736;23.346;2023-05-13T13:38:48;7.43;;;5.03;;
20623;SDS011;10471;42.736;23.346;2023-05-13T13:41:13;5.47;;;4.97;;
20623;SDS011;10471;42.736;23.346;2023-05-13T13:43:39;6.00;;;4.80;;
20623;SDS011;10471;42.736;23.346;2023-05-13T13:46:04;7.20;;;4.83;;
20623;SDS011;10471;42.736;23.346;2023-05-13T13:48:30;7.77;;;5.47;;
20623;SDS011;10471;42.736;23.346;2023-05-13T13:50:55;5.97;;;4.67;;
20623;SDS011;10471;42.736;23.346;2023-05-13T13:53:22;7.10;;;5.00;;
20623;SDS011;10471;42.736;23.346;2023-05-13T13:55:47;6.77;;;5.03;;
20623;SDS011;10471;42.736;23.346;2023-05-13T13:58:13;6.50;;;5.27;;
20623;SDS011;10471;42.736;23.346;2023-05-13T14:00:39;7.83;;;5.17;;
20623;SDS011;10471;42.736;23.346;2023-05-13T14:03:05;6.60;;;4.87;;
20623;SDS011;10471;42.736;23.346;2023-05-13T14:05:30;5.80;;;5.13;;
20623;SDS011;10471;42.736;23.346;2023-05-13T14:07:55;6.43;;;5.40;;
20623;SDS011;10471;42.736;23.346;2023-05-13T14:10:21;8.93;;;4.93;;
20623;SDS011;10471;42.736;23.346;2023-05-13T14:12:46;7.77;;;4.90;;
20623;SDS011;10471;42.736;23.346;2023-05-13T14:15:12;7.10;;;4.70;;
20623;SDS011;10471;42.736;23.346;2023-05-13T14:17:37;7.17;;;4.70;;
20623;SDS011;10471;42.736;23.346;2023-05-13T14:20:03;6.80;;;4.70;;
20623;SDS011;10471;42.736;23.346;2023-05-13T14:22:29;6.20;;;4.50;;
20623;SDS011;10471;42.736;23.346;2023-05-13T14:24:54;8.37;;;4.60;;
20623;SDS011;10471;42.736;23.346;2023-05-13T14:27:20;7.97;;;4.73;;
20623;SDS011;10471;42.736;23.346;2023-05-13T14:29:46;10.20;;;5.27;;
20623;SDS011;10471;42.736;23.346;2023-05-13T14:32:12;6.77;;;4.57;;
20623;SDS011;10471;42.736;23.346;2023-05-13T14:34:37;8.13;;;4.70;;
20623;SDS011;10471;42.736;23.346;2023-05-13T14:37:03;7.20;;;4.20;;
20623;SDS011;10471;42.736;23.346;2023-05-13T14:39:28;5.77;;;4.70;;
20623;SDS011;10471;42.736;23.346;2023-05-13T14:41:54;6.23;;;4.43;;
20623;SDS011;10471;42.736;23.346;2023-05-13T14:44:20;5.27;;;4.40;;
20623;SDS011;10471;42.736;23.346;2023-05-13T14:46:45;6.13;;;4.80;;
20623;SDS011;10471;42.736;23.346;2023-05-13T14:49:11;6.00;;;4.03;;
20623;SDS011;10471;42.736;23.346;2023-05-13T14:51:36;4.63;;;3.50;;
20623;SDS011;10471;42.736;23.346;2023-05-13T14:54:02;8.10;;;4.03;;
20623;SDS011;10471;42.736;23.346;2023-05-13T14:56:27;8.50;;;4.37;;
20623;SDS011;10471;42.736;23.346;2023-05-13T14:58:53;5.10;;;3.43;;
20623;SDS011;10471;42.736;23.346;2023-05-13T15:01:18;7.00;;;3.70;;
20623;SDS011;10471;42.736;23.346;2023-05-13T15:03:44;4.37;;;3.93;;
20623;SDS011;10471;42.736;23.346;2023-05-13T15:06:09;4.97;;;4.03;;
20623;SDS011;10471;42.736;23.346;2023-05-13T15:08:35;6.00;;;4.47;;
20623;SDS011;10471;42.736;23.346;2023-05-13T15:11:01;4.37;;;3.87;;
20623;SDS011;10471;42.736;23.346;2023-05-13T15:13:27;4.87;;;3.90;;